Time;durP1;ratioP1;P1;durP2;ratioP2;P2;SDS_P1;SDS_P2;PMS_P1;PMS_P2;Temp;Humidity;BMP_temperature;BMP_pressure;BME280_temperature;BME280_humidity;BME280_pressure;Samples;Min_cycle;Max_cycle;Signal;HPM_P1;HPM_P2
2023/09/16 00:00:34;;;;;;;5.45;2.20;;;;;;;20.12;100.00;99711.03;4980382;28;20565;-67
2023/09/16 00:03:00;;;;;;;3.58;2.13;;;;;;;20.11;100.00;99709.38;4980243;28;20030;-67
2023/09/16 00:05:26;;;;;;;2.80;1.95;;;;;;;20.10;100.00;99710.59;4980340;28;20026;-67
2023/09/16 00:07:52;;;;;;;4.75;2.10;;;;;;;20.09;100.00;99708.97;4996273;28;20113;-67
2023/09/16 00:10:18;;;;;;;3.72;1.90;;;;;;;20.09;100.00;99711.78;4963724;28;20042;-67
2023/09/16 00:12:43;;;;;;;5.47;1.90;;;;;;;20.08;100.00;99707.31;4964021;28;20026;-67
2023/09/16 00:15:09;;;;;;;5.00;1.98;;;;;;;20.07;100.00;99714.16;4996419;28;20073;-67
2023/09/16 00:17:34;;;;;;;4.72;2.08;;;;;;;20.06;100.00;99715.38;4984422;28;20038;-67
2023/09/16 00:20:03;;;;;;;3.88;2.20;;;;;;;20.04;100.00;99707.28;4980141;28;20039;-67
2023/09/16 00:22:30;;;;;;;4.15;2.40;;;;;;;20.04;100.00;99706.47;4968484;28;20064;-67
2023/09/16 00:24:55;;;;;;;3.97;1.80;;;;;;;20.02;100.00;99714.47;4997328;28;20505;-67
2023/09/16 00:27:21;;;;;;;4.40;2.05;;;;;;;20.01;100.00;99718.50;4999002;28;20034;-67
2023/09/16 00:29:46;;;;;;;2.78;2.00;;;;;;;19.99;100.00;99703.97;4967292;28;20372;-67
2023/09/16 00:32:12;;;;;;;4.47;1.88;;;;;;;19.98;100.00;99702.34;4984227;28;20034;-67
2023/09/16 00:34:37;;;;;;;5.10;2.08;;;;;;;19.96;100.00;99704.72;4983286;28;20450;-67
2023/09/16 00:37:03;;;;;;;3.60;1.95;;;;;;;19.94;100.00;99705.09;4983563;28;20375;-67
2023/09/16 00:39:28;;;;;;;4.50;1.90;;;;;;;19.93;100.00;99706.28;4983701;28;20093;-67
2023/09/16 00:41:54;;;;;;;2.70;1.70;;;;;;;19.93;100.00;99711.09;4983535;28;20030;-67
2023/09/16 00:44:20;;;;;;;3.67;1.98;;;;;;;19.91;100.00;99702.22;4970284;28;20474;-67
2023/09/16 00:46:45;;;;;;;2.80;2.22;;;;;;;19.88;100.00;99700.97;4992467;28;20030;-67
2023/09/16 00:49:10;;;;;;;2.72;2.25;;;;;;;19.86;100.00;99707.00;4977378;28;20034;-67
2023/09/16 00:51:40;;;;;;;5.80;2.20;;;;;;;19.85;100.00;99699.69;4983315;28;20038;-67
2023/09/16 00:54:06;;;;;;;3.45;1.98;;;;;;;19.83;100.00;99698.44;4983845;28;20032;-67
2023/09/16 00:56:32;;;;;;;4.07;1.90;;;;;;;19.83;100.00;99706.91;4983254;28;20026;-67
2023/09/16 00:58:58;;;;;;;4.30;2.05;;;;;;;19.80;100.00;99700.00;4967049;28;20026;-67
2023/09/16 01:01:24;;;;;;;4.85;2.00;;;;;;;19.79;100.00;99704.03;4983066;28;20390;-67
2023/09/16 01:03:50;;;;;;;3.42;1.88;;;;;;;19.79;100.00;99704.03;4982846;28;20030;-67
2023/09/16 01:06:16;;;;;;;3.75;2.25;;;;;;;19.80;100.00;99702.84;4983062;28;20479;-67
2023/09/16 01:08:44;;;;;;;3.15;2.00;;;;;;;19.78;100.00;99693.13;4982705;28;20039;-67
2023/09/16 01:11:10;;;;;;;3.00;1.90;;;;;;;19.77;100.00;99686.69;4982834;28;20062;-67
2023/09/16 01:13:37;;;;;;;2.65;1.95;;;;;;;19.77;100.00;99703.59;4983046;28;20031;-67
2023/09/16 01:16:21;;;;;;;2.67;1.88;;;;;;;19.76;100.00;99713.25;4982986;28;20066;-67
2023/09/16 01:18:52;;;;;;;3.50;2.30;;;;;;;19.74;100.00;99751.44;4982984;28;20390;-67
2023/09/16 01:21:18;;;;;;;4.03;1.95;;;;;;;19.74;100.00;99737.34;4983099;28;20038;-67
2023/09/16 01:23:44;;;;;;;3.38;2.20;;;;;;;19.70;100.00;99750.56;4982600;28;20034;-67
2023/09/16 01:26:09;;;;;;;4.75;2.47;;;;;;;19.69;100.00;99755.34;4998824;28;20026;-67
2023/09/16 01:28:35;;;;;;;4.15;2.05;;;;;;;19.69;100.00;99746.91;4998671;28;20117;-67
2023/09/16 01:31:01;;;;;;;2.85;1.73;;;;;;;19.67;100.00;99754.94;4960344;28;20041;-67
2023/09/16 01:33:44;;;;;;;4.45;2.10;;;;;;;19.67;100.00;99754.94;4982249;28;20030;-66
2023/09/16 01:36:12;;;;;;;3.40;2.30;;;;;;;19.63;100.00;99737.09;4983979;28;20037;-67
2023/09/16 01:38:38;;;;;;;4.10;1.70;;;;;;;19.63;100.00;99737.09;4981513;28;20073;-67
2023/09/16 01:41:04;;;;;;;4.53;2.03;;;;;;;19.63;100.00;99735.09;4966102;28;20034;-67
2023/09/16 01:43:31;;;;;;;3.85;2.10;;;;;;;19.60;100.00;99730.22;4998576;28;20113;-67
2023/09/16 01:45:56;;;;;;;3.45;1.90;;;;;;;19.60;100.00;99735.84;4980281;28;20030;-67
2023/09/16 01:48:22;;;;;;;3.42;1.83;;;;;;;19.58;100.00;99735.41;4985813;28;20041;-67
2023/09/16 01:50:47;;;;;;;4.95;2.20;;;;;;;19.58;100.00;99740.22;4982177;28;20039;-67
2023/09/16 01:53:12;;;;;;;3.30;1.90;;;;;;;19.56;100.00;99742.63;4999561;28;20491;-67
2023/09/16 01:55:38;;;;;;;2.42;1.98;;;;;;;19.54;100.00;99736.53;4981885;28;20031;-67
2023/09/16 01:58:06;;;;;;;4.78;2.22;;;;;;;19.54;100.00;99745.00;4982092;28;20030;-67
2023/09/16 02:00:31;;;;;;;4.78;2.20;;;;;;;19.50;100.00;99750.56;4985120;28;20049;-67
2023/09/16 02:02:56;;;;;;;3.22;2.17;;;;;;;19.51;100.00;99748.56;4981669;28;20034;-67
2023/09/16 02:05:22;;;;;;;3.92;2.30;;;;;;;19.49;100.00;99750.91;4998079;28;20030;-67
2023/09/16 02:07:47;;;;;;;4.55;2.17;;;;;;;19.47;100.00;99744.84;4999050;28;20042;-67
2023/09/16 02:10:13;;;;;;;3.67;2.10;;;;;;;19.45;100.00;99748.03;4965347;28;20026;-67
2023/09/16 02:12:39;;;;;;;2.53;1.90;;;;;;;19.44;100.00;99743.59;4997903;28;20391;-67
2023/09/16 02:15:06;;;;;;;3.70;2.08;;;;;;;19.39;100.00;99733.47;4981597;28;20034;-67
2023/09/16 02:17:32;;;;;;;2.95;1.90;;;;;;;19.37;100.00;99730.19;4981527;28;20065;-67
2023/09/16 02:19:57;;;;;;;3.65;2.40;;;;;;;19.37;100.00;99735.81;4997869;28;20061;-67
2023/09/16 02:22:22;;;;;;;2.53;1.83;;;;;;;19.38;100.00;99734.63;4984722;28;20186;-67
2023/09/16 02:24:48;;;;;;;2.70;2.05;;;;;;;19.35;100.00;99734.56;4997659;28;20030;-67
2023/09/16 02:27:13;;;;;;;3.95;2.40;;;;;;;19.34;100.00;99738.56;4981394;28;20022;-67
2023/09/16 02:29:39;;;;;;;4.00;1.80;;;;;;;19.29;100.00;99734.06;4981385;28;20038;-66
2023/09/16 02:32:05;;;;;;;3.83;2.13;;;;;;;19.25;100.00;99723.91;4981958;28;20038;-67
2023/09/16 02:34:35;;;;;;;2.72;1.80;;;;;;;19.20;100.00;99725.03;4997394;28;20034;-67
2023/09/16 02:37:00;;;;;;;3.72;1.85;;;;;;;19.20;100.00;99727.84;4981230;28;20093;-67
2023/09/16 02:39:26;;;;;;;3.20;2.10;;;;;;;19.17;100.00;99720.97;4963549;28;20034;-67
2023/09/16 02:41:51;;;;;;;2.60;2.00;;;;;;;19.15;100.00;99725.31;4981242;28;20033;-67
2023/09/16 02:44:17;;;;;;;3.35;2.25;;;;;;;19.11;100.00;99716.81;4981166;28;20034;-67
2023/09/16 02:46:42;;;;;;;2.00;1.60;;;;;;;19.07;100.00;99712.28;4997286;28;20030;-67
2023/09/16 02:49:08;;;;;;;2.38;1.90;;;;;;;19.08;100.00;99722.34;4980568;28;20478;-67
2023/09/16 02:51:33;;;;;;;3.65;2.05;;;;;;;19.06;100.00;99719.94;4990741;28;20031;-67
2023/09/16 02:54:00;;;;;;;2.72;2.00;;;;;;;19.02;100.00;99719.03;4990924;28;20506;-67
2023/09/16 02:56:25;;;;;;;2.60;1.70;;;;;;;18.97;100.00;99714.53;4981248;28;20458;-67
2023/09/16 02:58:52;;;;;;;3.63;2.03;;;;;;;18.95;100.00;99714.06;4981014;28;20169;-67
2023/09/16 03:01:17;;;;;;;3.42;2.00;;;;;;;18.92;100.00;99714.81;4964967;28;20026;-67
2023/09/16 03:03:43;;;;;;;2.15;1.73;;;;;;;18.89;100.00;99711.94;4996903;28;20037;-67
2023/09/16 03:06:09;;;;;;;2.90;1.83;;;;;;;18.84;100.00;99712.22;4981072;28;20026;-67
2023/09/16 03:08:35;;;;;;;3.38;2.00;;;;;;;18.81;100.00;99705.34;4996785;28;20484;-67
2023/09/16 03:11:02;;;;;;;3.13;2.03;;;;;;;18.78;100.00;99702.41;4996714;28;20062;-67
2023/09/16 03:13:28;;;;;;;2.40;1.80;;;;;;;18.72;100.00;99699.91;4980959;28;20040;-67
2023/09/16 03:16:11;;;;;;;2.40;1.80;;;;;;;18.72;100.00;99690.63;4980556;28;20494;-67
2023/09/16 03:18:36;;;;;;;2.38;1.85;;;;;;;18.64;100.00;99697.31;4996603;28;20038;-66
2023/09/16 03:21:02;;;;;;;2.17;1.98;;;;;;;18.63;100.00;99701.28;4980742;28;20034;-67
2023/09/16 03:23:28;;;;;;;2.80;2.05;;;;;;;18.58;100.00;99693.13;4980639;28;20035;-67
2023/09/16 03:25:53;;;;;;;3.03;1.90;;;;;;;18.54;100.00;99688.25;4964624;28;20026;-67
2023/09/16 03:28:19;;;;;;;2.85;2.03;;;;;;;18.53;100.00;99686.63;4983768;28;20038;-67
2023/09/16 03:30:44;;;;;;;2.38;1.83;;;;;;;18.49;100.00;99682.91;4981179;28;20043;-67
2023/09/16 03:33:09;;;;;;;3.08;1.95;;;;;;;18.45;100.00;99684.84;4980408;28;20030;-67
2023/09/16 03:35:36;;;;;;;3.47;1.90;;;;;;;18.42;100.00;99681.94;4996693;28;20027;-67
2023/09/16 03:38:01;;;;;;;3.00;2.00;;;;;;;18.36;100.00;99687.03;4980282;28;20030;-66
2023/09/16 03:40:28;;;;;;;3.00;2.00;;;;;;;18.31;100.00;99671.25;4996854;28;20035;-67
2023/09/16 03:42:54;;;;;;;2.65;1.80;;;;;;;18.32;100.00;99669.25;4980428;28;20031;-67
2023/09/16 03:45:19;;;;;;;2.58;2.10;;;;;;;18.28;100.00;99682.44;4966799;28;20030;-66
2023/09/16 03:47:44;;;;;;;3.58;2.10;;;;;;;18.28;100.00;99676.81;4961767;28;20026;-67
2023/09/16 03:50:10;;;;;;;3.05;2.25;;;;;;;18.25;100.00;99683.97;4986045;28;20034;-67
2023/09/16 03:52:36;;;;;;;2.72;2.00;;;;;;;18.24;100.00;99689.94;4996490;28;20105;-66
2023/09/16 03:55:02;;;;;;;4.95;2.30;;;;;;;18.21;100.00;99696.31;4996553;28;20073;-67
2023/09/16 03:57:28;;;;;;;2.90;2.20;;;;;;;18.17;100.00;99693.41;4963596;28;20031;-67
2023/09/16 03:59:53;;;;;;;4.97;2.38;;;;;;;18.14;100.00;99694.16;4996607;28;20057;-67
2023/09/16 04:02:19;;;;;;;3.00;2.03;;;;;;;18.10;100.00;99690.44;4982937;28;20034;-67
2023/09/16 04:04:44;;;;;;;2.83;2.03;;;;;;;18.07;100.00;99689.16;4984186;28;20026;-67
2023/09/16 04:07:10;;;;;;;3.97;2.13;;;;;;;18.04;100.00;99692.69;5000040;28;20046;-67
2023/09/16 04:09:35;;;;;;;3.10;2.30;;;;;;;18.04;100.00;99687.09;4984023;28;20479;-67
2023/09/16 04:12:02;;;;;;;2.53;2.00;;;;;;;18.04;100.00;99691.88;4999717;28;20065;-67
2023/09/16 04:14:28;;;;;;;2.75;2.08;;;;;;;18.04;100.00;99686.28;4984040;28;20497;-66
2023/09/16 04:16:53;;;;;;;2.28;1.95;;;;;;;17.99;100.00;99678.94;4966862;28;20030;-66
2023/09/16 04:19:18;;;;;;;4.45;1.90;;;;;;;18.00;100.00;99689.00;4990363;28;20038;-67
2023/09/16 04:21:46;;;;;;;2.47;1.80;;;;;;;17.96;100.00;99685.28;4986969;28;20035;-67
2023/09/16 04:24:12;;;;;;;3.22;2.10;;;;;;;17.98;100.00;99676.50;4983939;28;20034;-67
2023/09/16 04:26:38;;;;;;;2.95;2.05;;;;;;;17.95;100.00;99678.03;4983513;28;20038;-66
2023/09/16 04:29:03;;;;;;;2.33;1.92;;;;;;;18.00;100.00;99674.16;5000043;28;20030;-67
2023/09/16 04:31:30;;;;;;;3.08;2.33;;;;;;;17.95;100.00;99682.84;5000445;28;20037;-66
2023/09/16 04:33:55;;;;;;;4.15;2.00;;;;;;;17.94;100.00;99681.19;4999751;28;20026;-67
2023/09/16 04:36:22;;;;;;;2.88;2.20;;;;;;;17.94;100.00;99679.22;4999622;28;20409;-67
2023/09/16 04:38:48;;;;;;;3.50;2.05;;;;;;;17.93;100.00;99682.38;4982301;28;20040;-67
2023/09/16 04:41:14;;;;;;;2.55;1.88;;;;;;;17.93;100.00;99669.16;4997869;28;20349;-67
2023/09/16 04:43:40;;;;;;;3.13;2.13;;;;;;;17.90;100.00;99675.50;4983455;28;20037;-67
2023/09/16 04:46:05;;;;;;;3.25;2.08;;;;;;;17.89;100.00;99673.06;4999554;28;20033;-67
2023/09/16 04:48:31;;;;;;;3.83;1.80;;;;;;;17.90;100.00;99681.13;4999229;28;20034;-67
2023/09/16 04:50:56;;;;;;;3.13;2.13;;;;;;;17.92;100.00;99680.78;4970394;28;20483;-67
2023/09/16 04:53:22;;;;;;;2.85;2.00;;;;;;;17.88;100.00;99677.84;4999468;28;20030;-67
2023/09/16 04:55:47;;;;;;;4.07;1.90;;;;;;;17.86;100.00;99685.84;5000529;28;20038;-67
2023/09/16 04:58:13;;;;;;;3.45;2.33;;;;;;;17.88;100.00;99683.47;4983243;28;20030;-67
2023/09/16 05:00:38;;;;;;;3.88;2.35;;;;;;;17.85;100.00;99676.56;4983026;28;20035;-67
2023/09/16 05:03:04;;;;;;;6.63;2.50;;;;;;;17.89;100.00;99684.31;5000361;28;20034;-67
2023/09/16 05:05:30;;;;;;;2.47;2.20;;;;;;;17.85;100.00;99696.25;5000370;28;20493;-67
2023/09/16 05:07:55;;;;;;;3.70;2.13;;;;;;;17.83;100.00;99698.63;4966798;28;20030;-67
2023/09/16 05:10:21;;;;;;;4.00;2.15;;;;;;;17.82;100.00;99696.97;4982300;28;20038;-67
2023/09/16 05:12:46;;;;;;;3.30;2.30;;;;;;;17.80;100.00;99685.31;4998051;28;20073;-67
2023/09/16 05:15:12;;;;;;;2.40;2.15;;;;;;;17.78;100.00;99690.47;4982762;28;20035;-67
2023/09/16 05:17:39;;;;;;;2.45;2.05;;;;;;;17.79;100.00;99696.88;4998983;28;20038;-66
2023/09/16 05:20:04;;;;;;;2.55;2.13;;;;;;;17.78;100.00;99695.25;5000075;28;20035;-66
2023/09/16 05:22:30;;;;;;;4.78;2.10;;;;;;;17.77;100.00;99691.59;5000330;28;20042;-67
2023/09/16 05:24:56;;;;;;;2.60;2.00;;;;;;;17.77;100.00;99687.97;4982570;28;20387;-67
2023/09/16 05:27:22;;;;;;;3.30;2.35;;;;;;;17.74;100.00;99697.94;4998917;28;20570;-67
2023/09/16 05:29:55;;;;;;;3.08;2.35;;;;;;;17.71;100.00;99695.03;4982758;28;20061;-67
2023/09/16 05:32:21;;;;;;;3.55;2.00;;;;;;;17.71;100.00;99684.63;4983588;28;20121;-66
2023/09/16 05:34:47;;;;;;;3.80;2.28;;;;;;;17.69;100.00;99688.97;4982559;28;20072;-66
2023/09/16 05:37:12;;;;;;;3.10;2.50;;;;;;;17.69;100.00;99674.94;4982268;28;20030;-67
2023/09/16 05:39:38;;;;;;;2.53;2.13;;;;;;;17.72;100.00;99679.81;4998625;28;20034;-67
2023/09/16 05:42:04;;;;;;;4.60;2.55;;;;;;;17.69;100.00;99684.19;4982403;28;20038;-67
2023/09/16 05:44:29;;;;;;;2.70;2.13;;;;;;;17.66;100.00;99684.88;4981993;28;20022;-67
2023/09/16 05:46:55;;;;;;;3.15;2.50;;;;;;;17.69;100.00;99687.00;4982250;28;20030;-67
2023/09/16 05:49:20;;;;;;;3.80;1.95;;;;;;;17.69;100.00;99689.81;4998047;28;20046;-67
2023/09/16 05:51:46;;;;;;;3.75;2.40;;;;;;;17.66;100.00;99687.69;4966071;28;20482;-67
2023/09/16 05:54:13;;;;;;;3.17;2.40;;;;;;;17.67;100.00;99688.53;4981916;28;20048;-67
2023/09/16 05:56:39;;;;;;;4.28;2.50;;;;;;;17.69;100.00;99688.97;4980933;28;20041;-66
2023/09/16 05:59:06;;;;;;;5.63;2.80;;;;;;;17.65;100.00;99686.88;4997684;28;20034;-67
2023/09/16 06:01:31;;;;;;;3.67;2.20;;;;;;;17.64;100.00;99699.31;4998241;28;20034;-67
2023/09/16 06:03:57;;;;;;;3.28;2.38;;;;;;;17.64;100.00;99693.69;4981417;28;20023;-66
2023/09/16 06:06:22;;;;;;;3.58;2.10;;;;;;;17.67;100.00;99696.97;4978566;28;20035;-67
2023/09/16 06:08:48;;;;;;;3.55;2.28;;;;;;;17.67;100.00;99697.78;4997491;28;20109;-67
2023/09/16 06:11:13;;;;;;;4.60;2.40;;;;;;;17.67;100.00;99692.16;4997686;28;20066;-66
2023/09/16 06:13:39;;;;;;;3.35;2.33;;;;;;;17.67;100.00;99696.97;4997892;28;20026;-67
2023/09/16 06:16:06;;;;;;;3.90;2.35;;;;;;;17.68;100.00;99693.78;4997993;28;20061;-67
2023/09/16 06:18:32;;;;;;;2.80;2.30;;;;;;;17.67;100.00;99694.16;4997914;28;20113;-67
2023/09/16 06:20:57;;;;;;;4.28;2.28;;;;;;;17.65;100.00;99697.31;4981595;28;20034;-67
2023/09/16 06:23:25;;;;;;;3.58;2.30;;;;;;;17.65;100.00;99703.72;4981085;28;20039;-66
2023/09/16 06:25:51;;;;;;;3.10;2.50;;;;;;;17.69;100.00;99703.84;4981720;28;20471;-67
2023/09/16 06:28:16;;;;;;;5.25;2.22;;;;;;;17.70;100.00;99710.28;4997814;28;20038;-67
2023/09/16 06:30:42;;;;;;;3.13;2.40;;;;;;;17.71;100.00;99709.09;4982089;28;20034;-67
2023/09/16 06:33:07;;;;;;;3.70;2.42;;;;;;;17.72;100.00;99705.09;4997281;28;20149;-67
2023/09/16 06:35:32;;;;;;;4.63;2.38;;;;;;;17.72;100.00;99708.72;4965268;28;20031;-67
2023/09/16 06:37:58;;;;;;;2.95;2.03;;;;;;;17.75;100.00;99713.63;4998557;28;20042;-67
2023/09/16 06:40:23;;;;;;;2.70;2.17;;;;;;;17.74;100.00;99723.22;4981461;28;20034;-67
2023/09/16 06:42:49;;;;;;;2.58;2.20;;;;;;;17.77;100.00;99728.09;4998765;28;20053;-66
2023/09/16 06:45:14;;;;;;;3.00;2.22;;;;;;;17.78;100.00;99734.56;4997338;28;20026;-67
2023/09/16 06:47:40;;;;;;;3.67;2.22;;;;;;;17.78;100.00;99738.22;4980934;28;20034;-67
2023/09/16 06:50:06;;;;;;;3.35;2.40;;;;;;;17.83;100.00;99732.31;4989202;28;20035;-67
2023/09/16 06:52:32;;;;;;;2.78;2.22;;;;;;;17.82;100.00;99736.28;4976432;28;20121;-66
2023/09/16 06:54:57;;;;;;;5.72;2.78;;;;;;;17.85;100.00;99740.38;4981131;28;20042;-67
2023/09/16 06:57:23;;;;;;;2.70;2.28;;;;;;;17.87;100.00;99752.06;4980922;28;20034;-67
2023/09/16 06:59:49;;;;;;;2.95;2.40;;;;;;;17.87;100.00;99749.25;4981041;28;20034;-67
2023/09/16 07:02:14;;;;;;;3.15;2.30;;;;;;;17.93;100.00;99764.66;4980756;28;20550;-67
2023/09/16 07:04:42;;;;;;;3.30;2.38;;;;;;;17.92;100.00;99756.59;4980956;28;20069;-67
2023/09/16 07:07:11;;;;;;;3.72;2.42;;;;;;;17.91;100.00;99755.78;4997221;28;20038;-66
2023/09/16 07:09:37;;;;;;;5.65;2.67;;;;;;;18.00;100.00;99759.25;4981112;28;20039;-67
2023/09/16 07:12:04;;;;;;;3.42;2.53;;;;;;;17.97;100.00;99759.97;4980461;28;20125;-67
2023/09/16 07:14:29;;;;;;;4.32;2.42;;;;;;;18.00;100.00;99764.84;4981012;28;20041;-67
2023/09/16 07:16:55;;;;;;;5.28;2.42;;;;;;;18.02;100.00;99765.28;4996745;28;20038;-67
2023/09/16 07:19:20;;;;;;;3.60;2.28;;;;;;;18.06;100.00;99773.81;4996967;28;20030;-67
2023/09/16 07:21:46;;;;;;;5.65;2.50;;;;;;;18.07;100.00;99773.44;4996846;28;20471;-67
2023/09/16 07:24:11;;;;;;;3.22;2.45;;;;;;;18.11;100.00;99769.91;4996803;28;20030;-66
2023/09/16 07:26:37;;;;;;;3.92;2.63;;;;;;;18.13;100.00;99768.38;4996766;28;20034;-67
2023/09/16 07:29:02;;;;;;;3.78;2.65;;;;;;;18.19;100.00;99771.72;5003360;28;20030;-67
2023/09/16 07:31:28;;;;;;;4.43;2.50;;;;;;;18.24;100.00;99779.88;4984567;28;20043;-67
2023/09/16 07:33:53;;;;;;;4.72;2.53;;;;;;;18.30;100.00;99784.88;4979855;28;20117;-67
2023/09/16 07:36:19;;;;;;;3.80;2.60;;;;;;;18.35;100.00;99786.59;4985326;28;20030;-67
2023/09/16 07:38:44;;;;;;;3.72;2.60;;;;;;;18.39;100.00;99789.50;4984489;28;20363;-67
2023/09/16 07:41:10;;;;;;;5.18;2.70;;;;;;;18.45;100.00;99785.22;5000861;28;20034;-67
2023/09/16 07:43:36;;;;;;;4.20;2.80;;;;;;;18.51;100.00;99781.75;5000756;28;20038;-66
2023/09/16 07:46:02;;;;;;;4.95;2.78;;;;;;;18.57;100.00;99773.06;4966057;28;20031;-67
2023/09/16 07:48:27;;;;;;;4.55;2.70;;;;;;;18.64;100.00;99770.41;4968092;28;20506;-67
2023/09/16 07:50:54;;;;;;;2.90;2.08;;;;;;;18.72;100.00;99775.84;5001091;28;20033;-67
2023/09/16 07:53:20;;;;;;;3.63;2.72;;;;;;;18.81;100.00;99784.09;4960298;28;20027;-67
2023/09/16 07:55:46;;;;;;;5.60;2.70;;;;;;;18.91;100.00;99786.31;4978808;28;20026;-67
2023/09/16 07:58:11;;;;;;;3.40;2.55;;;;;;;19.01;100.00;99796.19;5001569;28;20030;-67
2023/09/16 08:00:37;;;;;;;5.03;2.25;;;;;;;19.11;100.00;99795.63;4968050;28;20113;-67
2023/09/16 08:03:02;;;;;;;3.78;2.65;;;;;;;19.22;100.00;99797.81;4983562;28;20030;-67
2023/09/16 08:05:28;;;;;;;7.63;2.85;;;;;;;19.33;100.00;99796.84;5000032;28;20041;-67
2023/09/16 08:07:53;;;;;;;3.67;2.38;;;;;;;19.45;100.00;99797.91;4983559;28;20065;-67
2023/09/16 08:10:19;;;;;;;4.68;2.53;;;;;;;19.57;100.00;99809.00;4982459;28;20101;-67
2023/09/16 08:12:45;;;;;;;4.10;2.45;;;;;;;19.68;100.00;99798.81;4982980;28;20479;-67
2023/09/16 08:15:10;;;;;;;4.75;2.75;;;;;;;19.77;100.00;99793.75;5000063;28;20034;-67
2023/09/16 08:17:39;;;;;;;3.40;2.80;;;;;;;19.86;100.00;99794.34;4983718;28;20049;-67
2023/09/16 08:20:08;;;;;;;5.75;3.22;;;;;;;19.96;100.00;99789.25;4984441;28;20045;-67
2023/09/16 08:22:33;;;;;;;5.43;2.90;;;;;;;20.01;100.00;99798.22;4983575;28;20088;-67
2023/09/16 08:24:59;;;;;;;5.18;2.88;;;;;;;20.10;100.00;99792.31;4967423;28;20073;-67
2023/09/16 08:27:25;;;;;;;5.32;3.40;;;;;;;20.19;100.00;99801.34;4967544;28;20030;-67
2023/09/16 08:29:52;;;;;;;11.85;8.73;;;;;;;20.29;100.00;99792.25;4983630;28;20030;-67
2023/09/16 08:32:18;;;;;;;10.10;7.10;;;;;;;20.40;100.00;99780.34;4968965;28;20190;-67
2023/09/16 08:34:44;;;;;;;14.40;10.75;;;;;;;20.51;100.00;99781.34;4994214;28;20041;-68
2023/09/16 08:37:11;;;;;;;14.23;9.80;;;;;;;20.61;100.00;99777.88;4963882;28;20042;-67
2023/09/16 08:39:37;;;;;;;12.07;7.78;;;;;;;20.74;100.00;99770.00;4994410;28;20386;-67
2023/09/16 08:42:10;;;;;;;7.97;6.38;;;;;;;20.85;100.00;99764.53;4983506;28;20109;-67
2023/09/16 08:44:37;;;;;;;8.23;6.10;;;;;;;21.01;100.00;99765.16;4999481;28;20042;-67
2023/09/16 08:47:07;;;;;;;15.05;9.77;;;;;;;21.16;100.00;99766.16;5005633;28;20486;-67
2023/09/16 08:49:34;;;;;;;26.77;14.93;;;;;;;21.31;100.00;99764.31;4995954;28;20109;-67
2023/09/16 08:52:00;;;;;;;22.58;17.17;;;;;;;21.49;100.00;99756.09;4990744;28;20146;-68
2023/09/16 08:54:25;;;;;;;24.50;13.68;;;;;;;21.60;100.00;99755.00;4986880;28;20164;-68
2023/09/16 08:56:51;;;;;;;20.75;11.38;;;;;;;21.75;100.00;99763.63;4992057;28;20034;-67
2023/09/16 08:59:16;;;;;;;22.25;10.90;;;;;;;21.86;100.00;99758.88;4986361;28;20030;-67
2023/09/16 09:01:45;;;;;;;18.10;9.55;;;;;;;21.99;100.00;99763.06;4999173;28;20368;-67
2023/09/16 09:04:11;;;;;;;13.82;7.38;;;;;;;22.13;100.00;99755.91;4991741;28;20032;-68
2023/09/16 09:06:36;;;;;;;13.30;8.50;;;;;;;22.29;100.00;99759.31;4982961;28;20431;-67
2023/09/16 09:09:02;;;;;;;14.70;10.07;;;;;;;22.45;100.00;99771.13;4998810;28;20034;-67
2023/09/16 09:11:30;;;;;;;16.30;8.45;;;;;;;22.58;100.00;99779.34;4998508;28;20129;-67
2023/09/16 09:13:56;;;;;;;7.93;6.22;;;;;;;22.69;100.00;99781.03;4983520;28;20023;-67
2023/09/16 09:16:21;;;;;;;9.80;5.90;;;;;;;22.78;100.00;99799.69;4982697;28;20088;-68
2023/09/16 09:18:47;;;;;;;11.18;5.75;;;;;;;22.86;100.00;99821.16;4982380;28;20031;-67
2023/09/16 09:21:13;;;;;;;11.02;6.47;;;;;;;22.92;100.00;99843.03;4970076;28;20033;-68
2023/09/16 09:23:39;;;;;;;8.43;5.43;;;;;;;22.92;100.00;99854.38;4982573;28;20088;-68
2023/09/16 09:26:04;;;;;;;11.18;4.85;;;;;;;22.92;100.00;99864.88;4982543;28;20085;-68
2023/09/16 09:28:30;;;;;;;10.75;5.03;;;;;;;22.90;100.00;99853.13;4982165;28;20034;-67
2023/09/16 09:30:58;;;;;;;8.85;4.20;;;;;;;22.87;100.00;99842.59;4963873;28;20042;-67
2023/09/16 09:33:25;;;;;;;10.45;8.43;;;;;;;22.84;100.00;99855.53;5011424;28;20034;-68
2023/09/16 09:35:52;;;;;;;21.65;16.88;;;;;;;22.77;100.00;99866.00;4982489;28;20034;-67
2023/09/16 09:38:19;;;;;;;17.77;14.00;;;;;;;22.67;100.00;99873.19;4982220;28;20437;-67
2023/09/16 09:40:57;;;;;;;15.35;10.10;;;;;;;22.58;100.00;99872.72;4966697;28;20027;-68
2023/09/16 09:43:23;;;;;;;17.42;9.60;;;;;;;22.48;100.00;99852.44;4982381;28;20041;-75
2023/09/16 09:45:48;;;;;;;20.90;8.55;;;;;;;22.37;100.00;99830.88;4982270;28;20439;-69
2023/09/16 09:48:14;;;;;;;21.95;8.05;;;;;;;22.22;100.00;99813.78;4998099;28;20034;-74
2023/09/16 09:50:40;;;;;;;17.70;6.90;;;;;;;22.04;100.00;99819.25;4981992;28;20439;-69
2023/09/16 09:53:05;;;;;;;17.73;6.63;;;;;;;21.89;100.00;99813.84;4992969;28;20031;-69
2023/09/16 09:55:31;;;;;;;15.43;5.63;;;;;;;21.78;100.00;99805.25;4980353;28;20037;-69
2023/09/16 09:57:56;;;;;;;8.80;5.57;;;;;;;21.66;100.00;99797.03;4980809;28;20037;-69
2023/09/16 10:00:24;;;;;;;16.75;5.78;;;;;;;21.54;100.00;99798.94;4981375;28;20033;-70
2023/09/16 10:02:49;;;;;;;11.52;5.05;;;;;;;21.42;100.00;99796.34;4984897;28;20035;-70
2023/09/16 10:05:20;;;;;;;10.32;4.88;;;;;;;21.30;100.00;99797.38;4981911;28;20037;-70
2023/09/16 10:07:45;;;;;;;9.50;4.80;;;;;;;21.23;100.00;99788.00;4953714;28;20136;-70
2023/09/16 10:10:16;;;;;;;14.23;6.20;;;;;;;21.15;100.00;99782.28;4965231;28;20034;-70
2023/09/16 10:12:43;;;;;;;15.40;5.25;;;;;;;21.08;100.00;99787.00;4997924;28;20026;-70
2023/09/16 10:15:09;;;;;;;8.82;5.32;;;;;;;21.04;100.00;99783.34;4968701;28;20565;-69
2023/09/16 10:17:34;;;;;;;7.20;4.70;;;;;;;21.02;100.00;99788.53;4965325;28;20081;-69
2023/09/16 10:20:00;;;;;;;12.00;5.05;;;;;;;21.02;100.00;99786.53;4981092;28;20030;-69
2023/09/16 10:22:25;;;;;;;9.60;4.45;;;;;;;21.02;100.00;99789.34;4980831;28;20434;-69
2023/09/16 10:24:50;;;;;;;8.15;5.22;;;;;;;21.07;100.00;99796.69;4964751;28;20026;-69
2023/09/16 10:27:23;;;;;;;10.52;5.45;;;;;;;21.13;100.00;99795.16;4981041;28;20038;-69
2023/09/16 10:29:48;;;;;;;10.55;5.55;;;;;;;21.22;100.00;99797.69;4979940;28;20113;-69
2023/09/16 10:32:18;;;;;;;9.68;6.38;;;;;;;21.33;100.00;99798.63;4961221;28;20041;-69
2023/09/16 10:34:47;;;;;;;10.13;5.47;;;;;;;21.45;100.00;99801.22;4949776;28;20026;-69
2023/09/16 10:37:15;;;;;;;10.07;5.25;;;;;;;21.54;100.00;99804.59;4980584;28;20096;-69
2023/09/16 10:39:40;;;;;;;9.85;4.40;;;;;;;21.62;100.00;99797.81;4963329;28;20044;-69
2023/09/16 10:42:06;;;;;;;8.55;4.30;;;;;;;21.71;100.00;99796.69;4961832;28;20031;-69
2023/09/16 10:44:31;;;;;;;10.65;4.55;;;;;;;21.83;100.00;99799.25;4945086;28;20117;-69
2023/09/16 10:46:57;;;;;;;7.78;4.78;;;;;;;21.95;100.00;99804.59;4961192;28;20037;-69
2023/09/16 10:49:23;;;;;;;9.40;4.32;;;;;;;22.06;100.00;99799.91;4976980;28;20066;-69
2023/09/16 10:51:48;;;;;;;7.32;4.22;;;;;;;22.21;100.00;99805.72;4986230;28;20049;-69
2023/09/16 10:54:24;;;;;;;7.88;4.30;;;;;;;22.30;100.00;99795.69;4966552;28;20037;-75
2023/09/16 10:56:49;;;;;;;6.32;4.20;;;;;;;22.40;100.00;99804.63;4961595;28;20046;-69
2023/09/16 10:59:17;;;;;;;7.68;4.72;;;;;;;22.49;100.00;99800.28;4961180;28;20031;-69
2023/09/16 11:01:57;;;;;;;7.30;4.30;;;;;;;22.59;100.00;99801.56;4961541;28;20109;-68
2023/09/16 11:04:23;;;;;;;8.40;4.47;;;;;;;22.69;100.00;99800.03;4977333;28;20035;-69
2023/09/16 11:06:50;;;;;;;6.40;4.28;;;;;;;22.78;100.00;99800.50;4961169;28;20145;-69
2023/09/16 11:09:20;;;;;;;6.22;3.80;;;;;;;22.86;100.00;99793.66;4945395;28;20043;-69
2023/09/16 11:11:49;;;;;;;5.97;4.25;;;;;;;22.95;100.00;99805.47;4959637;28;20145;-69
2023/09/16 11:14:14;;;;;;;8.20;4.95;;;;;;;23.02;100.00;99803.91;4980085;28;20042;-69
2023/09/16 11:16:44;;;;;;;7.28;4.20;;;;;;;23.10;100.00;99811.25;4976328;28;20038;-69
2023/09/16 11:19:24;;;;;;;7.53;5.03;;;;;;;23.19;100.00;99812.50;4976971;28;20042;-69